createdAt,value
2022-12-12T00:00:13.235Z,32.71
2022-12-12T00:01:44.496Z,31.94
2022-12-12T00:03:15.948Z,32.47
2022-12-12T00:04:47.255Z,32.37
2022-12-12T00:06:18.613Z,32.64
2022-12-12T00:07:49.987Z,32.24
2022-12-12T00:09:21.467Z,32.15
2022-12-12T00:10:52.715Z,31.94
2022-12-12T00:12:24.162Z,32.25
2022-12-12T00:13:55.354Z,33.71
2022-12-12T00:15:27.534Z,32.09
2022-12-12T00:16:58.942Z,31.99
2022-12-12T00:18:30.346Z,31.90
2022-12-12T00:20:01.629Z,31.88
2022-12-12T00:21:33.052Z,32.08
2022-12-12T00:23:05.109Z,31.54
2022-12-12T00:24:36.569Z,31.81
2022-12-12T00:26:07.880Z,30.61
2022-12-12T00:27:39.244Z,31.03
2022-12-12T00:29:10.550Z,30.12
2022-12-12T00:30:42.057Z,30.41
2022-12-12T00:32:13.172Z,30.13
2022-12-12T00:33:44.446Z,30.35
2022-12-12T00:35:15.687Z,30.72
2022-12-12T00:36:47.088Z,31.37
2022-12-12T00:38:18.525Z,31.34
2022-12-12T00:39:50.035Z,31.93
2022-12-12T00:41:21.426Z,31.82
2022-12-12T00:42:52.692Z,31.31
2022-12-12T00:44:24.067Z,31.21
2022-12-12T00:45:55.341Z,30.74
2022-12-12T00:47:26.679Z,31.35
2022-12-12T00:48:58.022Z,31.25
2022-12-12T00:50:29.268Z,30.82
2022-12-12T00:52:00.501Z,31.75
2022-12-12T00:53:31.728Z,30.85
2022-12-12T00:55:02.939Z,30.12
2022-12-12T00:56:39.452Z,30.43
2022-12-12T00:58:10.796Z,30.15
2022-12-12T00:59:41.962Z,31.06
2022-12-12T01:01:13.244Z,30.06
2022-12-12T01:02:44.578Z,31.26
2022-12-12T01:04:15.825Z,31.04
2022-12-12T01:05:47.181Z,31.24
2022-12-12T01:07:18.842Z,30.28
2022-12-12T01:08:50.045Z,30.61
2022-12-12T01:10:21.503Z,30.77
2022-12-12T01:11:52.754Z,30.67
2022-12-12T01:13:25.766Z,30.45
2022-12-12T01:14:57.102Z,30.30
2022-12-12T01:16:28.736Z,30.47
2022-12-12T01:18:05.009Z,30.05
2022-12-12T01:19:36.437Z,29.73
2022-12-12T01:21:07.797Z,29.60
2022-12-12T01:22:39.113Z,29.94
2022-12-12T01:24:10.333Z,30.38
2022-12-12T01:25:41.619Z,29.91
2022-12-12T01:27:13.212Z,30.08
2022-12-12T01:28:44.448Z,30.86
2022-12-12T01:30:15.827Z,30.13
2022-12-12T01:31:47.338Z,30.55
2022-12-12T01:33:18.694Z,30.99
2022-12-12T01:34:50.055Z,30.29
2022-12-12T01:36:21.272Z,29.51
2022-12-12T01:37:52.490Z,30.14
2022-12-12T01:39:23.956Z,30.59
2022-12-12T01:40:55.482Z,30.84
2022-12-12T01:42:26.749Z,31.79
2022-12-12T01:43:57.951Z,31.18
2022-12-12T01:45:29.187Z,31.03
2022-12-12T01:47:00.754Z,32.01
2022-12-12T01:48:37.009Z,31.53
2022-12-12T01:50:08.328Z,31.34
2022-12-12T01:51:39.963Z,31.11
2022-12-12T01:53:11.103Z,31.12
2022-12-12T01:54:42.356Z,30.57
2022-12-12T01:56:13.543Z,31.21
2022-12-12T01:57:44.919Z,30.93
2022-12-12T01:59:16.349Z,30.99
2022-12-12T02:00:48.015Z,31.61
2022-12-12T02:02:19.586Z,31.35
2022-12-12T02:03:50.943Z,30.87
2022-12-12T02:05:22.143Z,30.82
2022-12-12T02:06:53.352Z,31.52
2022-12-12T02:08:24.628Z,31.38
2022-12-12T02:09:55.940Z,30.57
2022-12-12T02:11:27.168Z,30.80
2022-12-12T02:12:58.688Z,29.87
2022-12-12T02:14:30.170Z,30.62
2022-12-12T02:16:01.527Z,31.16
2022-12-12T02:17:32.774Z,31.40
2022-12-12T02:19:04.057Z,31.19
2022-12-12T02:20:35.316Z,31.32
2022-12-12T02:22:06.801Z,31.62
2022-12-12T02:23:38.909Z,30.40
2022-12-12T02:25:10.568Z,30.70
2022-12-12T02:26:42.159Z,30.84
2022-12-12T02:28:13.478Z,31.28
2022-12-12T02:29:44.734Z,31.05
2022-12-12T02:31:16.001Z,31.36
2022-12-12T02:32:47.269Z,30.70
2022-12-12T02:34:18.924Z,30.61
2022-12-12T02:35:50.224Z,30.60
2022-12-12T02:37:21.655Z,30.05
2022-12-12T02:38:52.985Z,30.33
2022-12-12T02:40:24.723Z,30.08
2022-12-12T02:41:56.033Z,30.00
2022-12-12T02:43:27.575Z,30.26
2022-12-12T02:44:58.893Z,30.18
2022-12-12T02:46:30.670Z,29.73
2022-12-12T02:48:02.117Z,30.14
2022-12-12T02:49:33.347Z,29.31
2022-12-12T02:51:10.951Z,29.57
2022-12-12T02:52:42.386Z,29.17
2022-12-12T02:54:13.681Z,28.94
2022-12-12T02:55:44.933Z,29.25
2022-12-12T02:57:16.373Z,28.55
2022-12-12T02:58:47.998Z,28.80
2022-12-12T03:00:19.304Z,28.74
2022-12-12T03:01:50.543Z,29.18
2022-12-12T03:03:21.959Z,28.88
2022-12-12T03:04:53.206Z,28.84
2022-12-12T03:06:24.410Z,29.63
2022-12-12T03:07:55.657Z,29.67
2022-12-12T03:09:27.141Z,28.65
2022-12-12T03:10:58.360Z,27.76
2022-12-12T03:12:29.603Z,27.99
2022-12-12T03:14:01.089Z,28.42
2022-12-12T03:15:32.496Z,28.38
2022-12-12T03:17:03.731Z,28.37
2022-12-12T03:18:34.988Z,28.88
2022-12-12T03:20:06.170Z,28.62
2022-12-12T03:21:37.462Z,28.31
2022-12-12T03:23:08.704Z,28.41
2022-12-12T03:24:39.876Z,27.59
2022-12-12T03:26:11.249Z,27.53
2022-12-12T03:27:42.484Z,28.26
2022-12-12T03:29:14.003Z,28.41
2022-12-12T03:30:45.530Z,28.28
2022-12-12T03:32:17.273Z,28.50
2022-12-12T03:33:48.824Z,28.19
2022-12-12T03:35:20.114Z,27.80
2022-12-12T03:36:51.429Z,27.66
2022-12-12T03:38:22.660Z,27.81
2022-12-12T03:39:54.010Z,27.87
2022-12-12T03:41:25.483Z,27.86
2022-12-12T03:42:57.056Z,27.50
2022-12-12T03:44:28.321Z,27.73
2022-12-12T03:45:59.781Z,27.53
2022-12-12T03:47:30.949Z,27.59
2022-12-12T03:49:02.576Z,27.63
2022-12-12T03:50:33.876Z,27.86
2022-12-12T03:52:05.279Z,27.02
2022-12-12T03:53:36.541Z,27.98
2022-12-12T03:55:07.701Z,26.85
2022-12-12T03:56:38.829Z,27.39
2022-12-12T03:58:10.218Z,27.60
2022-12-12T03:59:41.457Z,28.18
2022-12-12T04:01:12.712Z,28.31
2022-12-12T04:02:44.120Z,28.92
2022-12-12T04:04:15.317Z,28.28
2022-12-12T04:05:46.809Z,28.00
2022-12-12T04:07:18.217Z,28.45
2022-12-12T04:08:49.536Z,28.29
2022-12-12T04:10:20.778Z,28.34
2022-12-12T04:11:52.102Z,28.64
2022-12-12T04:13:28.862Z,28.24
2022-12-12T04:15:02.997Z,27.79
2022-12-12T04:16:34.204Z,28.30
2022-12-12T04:18:05.332Z,28.09
2022-12-12T04:19:36.760Z,28.20
2022-12-12T04:21:08.099Z,28.48
2022-12-12T04:22:39.524Z,27.94
2022-12-12T04:24:15.933Z,27.56
2022-12-12T04:25:47.127Z,28.16
2022-12-12T04:27:18.614Z,27.72
2022-12-12T04:28:50.162Z,25.86
2022-12-12T04:30:21.484Z,26.25
2022-12-12T04:31:52.885Z,25.44
2022-12-12T04:33:24.315Z,27.14
2022-12-12T04:34:55.650Z,27.32
2022-12-12T04:36:26.828Z,27.38
2022-12-12T04:37:58.296Z,27.30
2022-12-12T04:39:29.685Z,26.04
2022-12-12T04:41:00.906Z,27.51
2022-12-12T04:42:32.132Z,26.84
2022-12-12T04:44:03.326Z,26.83
2022-12-12T04:45:34.582Z,26.63
2022-12-12T04:47:05.754Z,26.59
2022-12-12T04:48:38.427Z,26.64
2022-12-12T04:50:28.122Z,26.42
2022-12-12T04:51:59.868Z,26.69
2022-12-12T04:53:31.457Z,26.18
2022-12-12T04:55:20.605Z,26.16
2022-12-12T04:57:21.998Z,26.69
2022-12-12T04:58:53.242Z,26.30
2022-12-12T05:00:34.528Z,26.36
2022-12-12T05:02:05.858Z,26.39
2022-12-12T05:03:37.469Z,25.72
2022-12-12T05:05:08.795Z,26.64
2022-12-12T05:06:40.112Z,27.05
2022-12-12T05:08:11.733Z,26.25
2022-12-12T05:09:43.034Z,27.01
2022-12-12T05:11:14.370Z,26.15
2022-12-12T05:12:50.576Z,26.06
2022-12-12T05:14:21.784Z,25.40
2022-12-12T05:15:54.494Z,25.79
2022-12-12T05:17:25.698Z,26.00
2022-12-12T05:18:57.506Z,26.50
2022-12-12T05:20:28.860Z,25.09
2022-12-12T05:22:00.049Z,25.10
2022-12-12T05:23:34.595Z,25.57
2022-12-12T05:25:06.241Z,25.62
2022-12-12T05:26:37.396Z,25.63
2022-12-12T05:28:08.614Z,25.60
2022-12-12T05:29:40.069Z,25.83
2022-12-12T05:31:11.509Z,25.81
2022-12-12T05:32:42.843Z,25.66
2022-12-12T05:34:13.963Z,25.44
2022-12-12T05:35:46.194Z,25.08
2022-12-12T05:37:17.444Z,25.27
2022-12-12T05:38:48.747Z,24.92
2022-12-12T05:40:20.061Z,25.70
2022-12-12T05:41:51.315Z,26.17
2022-12-12T05:43:29.084Z,25.05
2022-12-12T05:47:43.744Z,24.48
2022-12-12T05:49:17.032Z,24.89
2022-12-12T05:50:48.826Z,24.32
2022-12-12T05:52:25.064Z,24.07
2022-12-12T05:53:56.551Z,24.66
2022-12-12T05:55:27.854Z,23.99
2022-12-12T05:56:59.279Z,24.55
2022-12-12T05:58:30.658Z,24.74
2022-12-12T06:00:02.302Z,24.15
2022-12-12T06:01:33.639Z,23.73
2022-12-12T06:03:04.896Z,24.89
2022-12-12T06:04:36.554Z,24.97
2022-12-12T06:06:08.010Z,25.16
2022-12-12T06:07:39.157Z,24.27
2022-12-12T06:09:10.336Z,24.63
2022-12-12T06:10:41.849Z,25.30
2022-12-12T06:12:18.053Z,24.11
2022-12-12T06:13:49.345Z,24.79
2022-12-12T06:15:20.704Z,24.36
2022-12-12T06:16:51.992Z,24.31
2022-12-12T06:18:23.382Z,25.15
2022-12-12T06:19:55.802Z,24.35
2022-12-12T06:21:27.130Z,24.40
2022-12-12T06:22:58.453Z,24.64
2022-12-12T06:24:29.650Z,24.85
2022-12-12T06:26:00.887Z,24.66
2022-12-12T06:27:32.407Z,24.33
2022-12-12T06:29:03.613Z,25.04
2022-12-12T06:30:34.755Z,24.46
2022-12-12T06:32:06.438Z,24.57
2022-12-12T06:33:37.756Z,24.12
2022-12-12T06:35:09.341Z,24.01
2022-12-12T06:36:40.648Z,24.33
2022-12-12T06:38:11.829Z,24.73
2022-12-12T06:39:42.968Z,24.92
2022-12-12T06:41:14.143Z,24.26
2022-12-12T06:42:48.178Z,24.13
2022-12-12T06:44:19.804Z,24.61
2022-12-12T06:45:51.221Z,25.15
2022-12-12T06:47:27.545Z,26.31
2022-12-12T06:48:58.697Z,26.10
2022-12-12T06:50:29.926Z,25.32
2022-12-12T06:52:01.153Z,25.23
2022-12-12T06:53:32.398Z,25.44
2022-12-12T06:55:03.824Z,24.47
2022-12-12T06:56:35.133Z,24.67
2022-12-12T06:58:06.626Z,24.18
2022-12-12T06:59:37.941Z,24.11
2022-12-12T07:01:10.018Z,25.27
2022-12-12T07:02:41.687Z,24.27
2022-12-12T07:04:12.871Z,24.46
2022-12-12T07:05:44.080Z,24.45
2022-12-12T07:07:15.327Z,24.80
2022-12-12T07:08:46.643Z,24.11
2022-12-12T07:10:21.316Z,24.96
2022-12-12T07:11:57.989Z,25.08
2022-12-12T07:13:29.284Z,24.72
2022-12-12T07:15:00.857Z,24.71
2022-12-12T07:16:32.019Z,25.57
2022-12-12T07:18:03.221Z,24.53
2022-12-12T07:19:34.573Z,24.82
2022-12-12T07:21:06.091Z,24.80
2022-12-12T07:22:37.459Z,23.90
2022-12-12T07:24:08.902Z,24.85
2022-12-12T07:25:40.418Z,23.80
2022-12-12T07:27:14.613Z,23.80
2022-12-12T07:28:49.800Z,24.77
2022-12-12T07:30:21.505Z,24.36
2022-12-12T07:31:53.006Z,24.56
2022-12-12T07:33:29.781Z,24.84
2022-12-12T07:35:07.385Z,24.14
2022-12-12T07:36:38.743Z,24.50
2022-12-12T07:38:14.864Z,24.79
2022-12-12T07:39:46.290Z,25.19
2022-12-12T07:41:17.603Z,24.97
2022-12-12T07:42:48.823Z,24.57
2022-12-12T07:44:25.130Z,24.75
2022-12-12T07:46:08.290Z,24.06
2022-12-12T07:47:51.878Z,24.20
2022-12-12T07:49:46.796Z,24.58
2022-12-12T07:51:18.425Z,23.90
2022-12-12T07:52:49.810Z,24.30
2022-12-12T07:54:26.233Z,24.73
2022-12-12T07:56:07.552Z,24.51
2022-12-12T07:57:41.386Z,23.94
2022-12-12T07:59:12.661Z,24.94
2022-12-12T08:00:44.225Z,24.37
2022-12-12T08:02:18.485Z,24.78
2022-12-12T08:03:49.939Z,25.24
2022-12-12T08:05:21.384Z,24.38
2022-12-12T08:06:59.668Z,24.43
2022-12-12T08:08:33.401Z,24.83
2022-12-12T08:10:05.329Z,24.44
2022-12-12T08:11:36.490Z,25.39
2022-12-12T08:13:07.986Z,25.46
2022-12-12T08:14:39.505Z,25.55
2022-12-12T08:16:10.930Z,26.48
2022-12-12T08:17:42.318Z,25.88
2022-12-12T08:19:18.629Z,26.19
2022-12-12T08:20:50.173Z,25.86
2022-12-12T08:22:21.390Z,25.12
2022-12-12T08:23:52.682Z,26.03
2022-12-12T08:25:24.102Z,25.85
2022-12-12T08:26:55.525Z,26.20
2022-12-12T08:28:26.749Z,26.08
2022-12-12T08:29:58.151Z,26.37
2022-12-12T08:31:30.096Z,25.28
2022-12-12T08:33:29.668Z,27.05
2022-12-12T08:35:01.134Z,30.37
2022-12-12T08:36:48.402Z,26.66
2022-12-12T08:38:19.641Z,26.43
2022-12-12T08:40:08.065Z,25.97
2022-12-12T08:41:40.590Z,24.96
2022-12-12T08:43:11.900Z,25.50
2022-12-12T08:44:43.436Z,26.40
2022-12-12T08:46:17.948Z,26.99
2022-12-12T08:47:49.859Z,27.86
2022-12-12T08:49:21.332Z,28.63
2022-12-12T08:50:52.571Z,27.84
2022-12-12T08:52:23.879Z,28.37
2022-12-12T08:53:55.468Z,28.38
2022-12-12T08:55:26.809Z,28.18
2022-12-12T08:56:58.198Z,28.98
2022-12-12T08:58:30.114Z,27.03
2022-12-12T09:00:01.450Z,26.70
2022-12-12T09:01:32.793Z,26.64
2022-12-12T09:03:04.242Z,26.38
2022-12-12T09:04:35.673Z,26.67
2022-12-12T09:06:07.258Z,26.11
2022-12-12T09:07:38.817Z,25.31
2022-12-12T09:09:10.098Z,26.03
2022-12-12T09:10:41.709Z,25.93
2022-12-12T09:12:18.273Z,26.16
2022-12-12T09:13:49.849Z,25.97
2022-12-12T09:15:21.236Z,25.19
2022-12-12T09:16:52.857Z,25.77
2022-12-12T09:18:24.295Z,25.47
2022-12-12T09:19:55.735Z,25.57
2022-12-12T09:21:27.135Z,25.48
2022-12-12T09:22:58.586Z,25.55
2022-12-12T09:24:29.923Z,26.15
2022-12-12T09:26:01.640Z,25.38
2022-12-12T09:27:33.293Z,25.91
2022-12-12T09:29:24.623Z,25.05
2022-12-12T09:30:55.843Z,25.08
2022-12-12T09:32:27.397Z,24.80
2022-12-12T09:33:59.016Z,25.51
2022-12-12T09:35:30.210Z,24.43
2022-12-12T09:37:01.552Z,24.26
2022-12-12T09:38:32.976Z,23.74
2022-12-12T09:40:04.361Z,24.03
2022-12-12T09:41:35.762Z,24.70
2022-12-12T09:43:07.201Z,25.50
2022-12-12T09:44:40.110Z,25.82
2022-12-12T09:46:11.408Z,25.15
2022-12-12T09:47:42.625Z,26.02
2022-12-12T09:49:13.816Z,25.25
2022-12-12T09:50:45.214Z,24.84
2022-12-12T09:52:16.768Z,26.07
2022-12-12T09:53:48.052Z,25.16
2022-12-12T09:55:19.285Z,26.37
2022-12-12T09:56:51.014Z,25.69
2022-12-12T09:58:22.343Z,25.52
2022-12-12T09:59:53.646Z,25.44
2022-12-12T10:01:24.964Z,24.72
2022-12-12T10:02:56.310Z,25.01
2022-12-12T10:04:27.733Z,26.17
2022-12-12T10:06:20.621Z,28.28
2022-12-12T10:08:07.083Z,30.29
2022-12-12T10:09:38.404Z,26.04
2022-12-12T10:11:09.801Z,26.24
2022-12-12T10:12:41.058Z,26.45
2022-12-12T10:14:22.383Z,26.45
2022-12-12T10:15:53.971Z,26.64
2022-12-12T10:17:25.610Z,27.03
2022-12-12T10:18:56.897Z,27.07
2022-12-12T10:20:28.502Z,25.97
2022-12-12T10:21:59.734Z,25.87
2022-12-12T10:23:31.061Z,26.90
2022-12-12T10:25:02.318Z,27.18
2022-12-12T10:26:33.614Z,26.25
2022-12-12T10:28:05.052Z,27.03
2022-12-12T10:29:41.210Z,26.72
2022-12-12T10:31:12.939Z,26.68
2022-12-12T10:32:44.134Z,26.99
2022-12-12T10:34:15.756Z,26.16
2022-12-12T10:35:47.186Z,26.98
2022-12-12T10:37:18.769Z,26.61
2022-12-12T10:38:50.508Z,26.74
2022-12-12T10:40:21.838Z,24.32
2022-12-12T10:41:53.533Z,26.07
2022-12-12T10:43:24.867Z,25.86
2022-12-12T10:44:56.324Z,24.87
2022-12-12T10:46:27.887Z,24.96
2022-12-12T10:47:59.496Z,25.07
2022-12-12T10:49:30.702Z,24.82
2022-12-12T10:51:02.128Z,24.68
2022-12-12T10:52:33.354Z,24.65
2022-12-12T10:54:04.590Z,25.97
2022-12-12T10:55:36.181Z,25.88
2022-12-12T10:57:07.517Z,25.98
2022-12-12T10:58:39.068Z,25.97
2022-12-12T11:00:10.389Z,25.65
2022-12-12T11:02:09.639Z,25.27
2022-12-12T11:03:41.622Z,26.59
2022-12-12T11:05:13.417Z,25.48
2022-12-12T11:06:44.984Z,25.57
2022-12-12T11:08:16.466Z,26.14
2022-12-12T11:09:47.860Z,26.62
2022-12-12T11:11:19.102Z,25.82
2022-12-12T11:12:50.675Z,25.97
2022-12-12T11:14:27.294Z,25.82
2022-12-12T11:15:58.712Z,25.92
2022-12-12T11:17:30.188Z,25.67
2022-12-12T11:19:01.424Z,25.58
2022-12-12T11:20:32.610Z,26.01
2022-12-12T11:22:04.036Z,26.01
2022-12-12T11:23:35.197Z,25.38
2022-12-12T11:25:06.498Z,26.02
2022-12-12T11:26:37.927Z,24.81
2022-12-12T11:28:09.247Z,25.66
2022-12-12T11:29:40.588Z,24.49
2022-12-12T11:31:12.004Z,24.89
2022-12-12T11:32:43.284Z,25.31
2022-12-12T11:34:14.602Z,26.50
2022-12-12T11:35:47.891Z,25.46
2022-12-12T11:37:19.496Z,25.84
2022-12-12T11:38:50.720Z,26.03
2022-12-12T11:40:22.098Z,25.24
2022-12-12T11:41:53.598Z,25.76
2022-12-12T11:43:24.985Z,24.91
2022-12-12T11:44:56.230Z,24.94
2022-12-12T11:46:27.589Z,25.80
2022-12-12T11:48:14.167Z,25.67
2022-12-12T11:49:45.717Z,23.41
2022-12-12T11:51:16.947Z,22.91
2022-12-12T11:53:18.240Z,22.81
2022-12-12T11:55:14.765Z,23.46
2022-12-12T11:56:47.310Z,22.81
2022-12-12T11:58:18.584Z,22.98
2022-12-12T11:59:49.949Z,24.04
2022-12-12T12:01:21.295Z,21.60
2022-12-12T12:02:52.657Z,21.15
2022-12-12T12:04:23.979Z,19.67
2022-12-12T12:05:55.454Z,20.48
2022-12-12T12:07:26.744Z,21.04
2022-12-12T12:08:58.294Z,20.42
2022-12-12T12:10:29.768Z,20.20
2022-12-12T12:12:01.113Z,20.37
2022-12-12T12:13:32.491Z,20.53
2022-12-12T12:15:03.915Z,19.90
2022-12-12T12:16:35.353Z,19.17
2022-12-12T12:18:06.584Z,19.50
2022-12-12T12:19:37.975Z,18.12
2022-12-12T12:21:09.210Z,16.46
2022-12-12T12:22:40.416Z,13.58
2022-12-12T12:24:11.715Z,14.06
2022-12-12T12:25:43.093Z,15.66
2022-12-12T12:27:14.459Z,16.02
2022-12-12T12:28:47.089Z,15.66
2022-12-12T12:30:18.544Z,15.21
2022-12-12T12:31:49.804Z,14.19
2022-12-12T12:33:21.195Z,13.36
2022-12-12T12:34:52.555Z,13.35
2022-12-12T12:36:23.819Z,13.49
2022-12-12T12:37:55.303Z,13.99
2022-12-12T12:39:31.587Z,13.33
2022-12-12T12:41:02.960Z,12.84
2022-12-12T12:42:34.195Z,12.03
2022-12-12T12:44:05.565Z,12.08
2022-12-12T12:45:38.178Z,11.68
2022-12-12T12:47:09.553Z,11.26
2022-12-12T12:48:40.960Z,11.92
2022-12-12T12:50:12.489Z,12.63
2022-12-12T12:51:49.957Z,13.08
2022-12-12T12:53:21.731Z,12.64
2022-12-12T12:54:53.022Z,12.54
2022-12-12T12:56:26.504Z,12.35
2022-12-12T12:57:59.259Z,12.31
2022-12-12T12:59:30.468Z,12.09
2022-12-12T13:01:01.958Z,12.19
2022-12-12T13:02:33.391Z,13.38
2022-12-12T13:04:04.866Z,13.23
2022-12-12T13:05:36.296Z,12.59
2022-12-12T13:07:07.763Z,12.57
2022-12-12T13:08:39.241Z,13.14
2022-12-12T13:10:10.589Z,13.99
2022-12-12T13:11:41.865Z,14.23
2022-12-12T13:13:13.129Z,14.41
2022-12-12T13:14:44.328Z,13.96
2022-12-12T13:16:15.697Z,14.81
2022-12-12T13:17:47.018Z,16.25
2022-12-12T13:19:18.231Z,14.90
2022-12-12T13:20:49.743Z,14.47
2022-12-12T13:22:20.975Z,13.96
2022-12-12T13:23:52.221Z,13.36
2022-12-12T13:25:23.692Z,14.04
2022-12-12T13:26:55.072Z,13.75
2022-12-12T13:28:26.909Z,14.51
2022-12-12T13:29:58.355Z,14.13
2022-12-12T13:31:29.600Z,13.68
2022-12-12T13:33:00.959Z,14.33
2022-12-12T13:34:32.506Z,15.57
2022-12-12T13:36:33.607Z,17.06
2022-12-12T13:38:30.181Z,16.68
2022-12-12T13:40:01.465Z,17.52
2022-12-12T13:41:48.985Z,17.23
2022-12-12T13:43:20.230Z,16.49
2022-12-12T13:44:51.689Z,16.58
2022-12-12T13:46:43.277Z,15.84
2022-12-12T13:48:14.981Z,15.21
2022-12-12T13:49:46.736Z,16.15
2022-12-12T13:51:18.123Z,15.91
2022-12-12T13:52:49.869Z,15.90
2022-12-12T13:54:50.668Z,16.28
2022-12-12T13:56:51.898Z,16.46
2022-12-12T13:58:36.874Z,15.34
2022-12-12T14:00:08.779Z,15.42
2022-12-12T14:01:40.270Z,15.76
2022-12-12T14:03:53.695Z,14.73
2022-12-12T14:05:43.072Z,15.73
2022-12-12T14:07:15.484Z,15.58
2022-12-12T14:08:59.935Z,15.86
2022-12-12T14:10:32.186Z,15.20
2022-12-12T14:12:03.436Z,14.09
2022-12-12T14:43:19.135Z,14.89
2022-12-12T14:44:53.731Z,14.56
2022-12-12T14:46:25.019Z,14.54
2022-12-12T14:47:56.410Z,13.78
2022-12-12T14:49:27.738Z,14.07
2022-12-12T14:50:58.970Z,14.06
2022-12-12T14:52:30.236Z,13.93
2022-12-12T14:54:01.559Z,14.67
2022-12-12T14:55:32.908Z,15.15
2022-12-12T14:57:04.078Z,15.01
2022-12-12T14:58:35.513Z,14.92
2022-12-12T15:00:06.889Z,14.90
2022-12-12T15:01:38.143Z,15.48
2022-12-12T15:03:09.606Z,15.80
2022-12-12T15:04:40.934Z,15.90
2022-12-12T15:06:12.233Z,15.22
2022-12-12T15:07:43.485Z,15.63
2022-12-12T15:09:14.706Z,15.59
2022-12-12T15:10:45.922Z,16.32
2022-12-12T15:12:17.249Z,15.80
2022-12-12T15:13:48.497Z,15.93
2022-12-12T15:15:20.113Z,15.94
2022-12-12T15:16:51.565Z,16.22
2022-12-12T15:18:23.009Z,16.17
2022-12-12T15:19:54.335Z,16.18
2022-12-12T15:21:25.656Z,15.91
2022-12-12T15:22:57.177Z,16.83
2022-12-12T15:24:28.406Z,17.05
2022-12-12T15:25:59.817Z,17.24
2022-12-12T15:27:31.050Z,17.36
2022-12-12T15:29:02.482Z,17.27
2022-12-12T15:30:34.018Z,16.47
2022-12-12T15:32:05.676Z,16.59
2022-12-12T15:35:57.936Z,17.14
2022-12-12T15:37:32.727Z,17.59
2022-12-12T15:39:04.053Z,17.07
2022-12-12T15:40:35.276Z,17.10
2022-12-12T15:42:06.469Z,17.00
2022-12-12T15:43:37.663Z,17.18
2022-12-12T15:45:09.758Z,17.31
2022-12-12T15:46:41.418Z,17.21
2022-12-12T15:48:14.026Z,16.95
2022-12-12T15:49:45.960Z,17.16
2022-12-12T15:51:24.339Z,17.28
2022-12-12T15:52:56.989Z,17.44
2022-12-12T15:54:28.607Z,17.77
2022-12-12T15:56:00.064Z,17.93
2022-12-12T15:57:31.550Z,18.10
2022-12-12T15:59:02.862Z,17.64
2022-12-12T16:00:34.232Z,17.40
2022-12-12T16:02:06.061Z,17.36
2022-12-12T16:03:37.351Z,17.38
2022-12-12T16:05:08.537Z,17.20
2022-12-12T16:06:39.691Z,17.53
2022-12-12T16:08:11.286Z,17.74
2022-12-12T16:09:42.731Z,18.36
2022-12-12T16:11:13.946Z,18.12
2022-12-12T16:12:45.165Z,18.82
2022-12-12T16:14:16.387Z,19.01
2022-12-12T16:15:47.779Z,18.97
2022-12-12T16:17:19.053Z,20.23
2022-12-12T16:18:50.302Z,19.56
2022-12-12T16:20:24.495Z,19.65
2022-12-12T16:22:00.312Z,20.00
2022-12-12T16:23:31.636Z,20.72
2022-12-12T16:25:02.901Z,20.27
2022-12-12T16:26:34.155Z,20.24
2022-12-12T16:28:05.539Z,21.34
2022-12-12T16:29:36.969Z,22.71
2022-12-12T16:31:08.267Z,21.57
2022-12-12T16:32:39.974Z,21.89
2022-12-12T16:34:11.441Z,21.51
2022-12-12T16:36:11.445Z,22.02
2022-12-12T16:37:42.654Z,22.55
2022-12-12T16:39:13.946Z,22.65
2022-12-12T16:40:45.295Z,22.46
2022-12-12T16:42:16.505Z,21.19
2022-12-12T16:43:47.695Z,22.60
2022-12-12T16:45:45.472Z,22.86
2022-12-12T16:47:16.760Z,23.16
2022-12-12T16:48:48.016Z,24.37
2022-12-12T16:50:19.292Z,23.61
2022-12-12T16:51:50.647Z,24.55
2022-12-12T16:53:22.138Z,24.01
2022-12-12T16:55:03.255Z,23.91
2022-12-12T16:56:34.420Z,23.37
2022-12-12T16:58:06.040Z,24.03
2022-12-12T16:59:37.576Z,23.55
2022-12-12T17:01:08.842Z,23.49
2022-12-12T17:02:40.299Z,23.46
2022-12-12T17:04:11.693Z,23.83
2022-12-12T17:05:42.954Z,24.25
2022-12-12T17:07:14.461Z,24.52
2022-12-12T17:08:45.773Z,25.28
2022-12-12T17:10:17.434Z,24.52
2022-12-12T17:11:48.817Z,24.63
2022-12-12T17:13:20.201Z,25.35
2022-12-12T17:14:51.778Z,24.95
2022-12-12T17:16:28.303Z,25.66
2022-12-12T17:17:59.917Z,26.09
2022-12-12T17:19:36.051Z,26.69
2022-12-12T17:21:07.348Z,27.51
2022-12-12T17:22:38.897Z,27.60
2022-12-12T17:24:10.139Z,26.88
2022-12-12T17:25:41.460Z,26.62
2022-12-12T17:27:12.725Z,27.03
2022-12-12T17:28:43.977Z,27.07
2022-12-12T17:30:15.593Z,26.81
2022-12-12T17:31:47.264Z,27.02
2022-12-12T17:33:18.485Z,26.87
2022-12-12T17:34:50.092Z,27.11
2022-12-12T17:36:21.350Z,26.71
2022-12-12T17:37:52.675Z,27.47
2022-12-12T17:39:23.959Z,27.31
2022-12-12T17:40:55.446Z,27.43
2022-12-12T17:42:26.875Z,28.36
2022-12-12T17:43:58.256Z,28.03
2022-12-12T17:45:29.618Z,28.31
2022-12-12T17:47:00.976Z,28.23
2022-12-12T17:48:32.175Z,28.24
2022-12-12T17:50:03.598Z,27.09
2022-12-12T17:51:34.746Z,28.46
2022-12-12T17:53:06.116Z,28.01
2022-12-12T17:54:37.449Z,27.70
2022-12-12T17:56:08.649Z,28.68
2022-12-12T17:57:39.935Z,29.14
2022-12-12T17:59:21.400Z,28.94
2022-12-12T18:00:52.759Z,28.65
2022-12-12T18:02:24.064Z,27.91
2022-12-12T18:04:13.209Z,28.26
2022-12-12T18:05:45.243Z,29.19
2022-12-12T18:07:33.832Z,28.23
2022-12-12T18:09:08.778Z,29.12
2022-12-12T18:11:01.349Z,30.01
2022-12-12T18:14:03.169Z,29.44
2022-12-12T18:15:34.821Z,29.70
2022-12-12T18:17:25.040Z,28.68
2022-12-12T18:18:56.598Z,29.53
2022-12-12T18:20:31.297Z,29.06
2022-12-12T18:22:20.005Z,28.43
2022-12-12T18:23:51.354Z,27.98
2022-12-12T18:26:02.346Z,27.95
2022-12-12T18:27:33.994Z,27.96
2022-12-12T18:29:30.340Z,27.92
2022-12-12T18:31:06.827Z,27.48
2022-12-12T18:32:38.729Z,26.62
2022-12-12T18:34:10.763Z,25.91
2022-12-12T18:35:52.779Z,26.33
2022-12-12T18:37:51.401Z,26.78
2022-12-12T18:39:22.597Z,26.74
2022-12-12T18:40:53.867Z,27.63
2022-12-12T18:42:25.326Z,27.37
2022-12-12T18:43:57.001Z,27.92
2022-12-12T18:45:28.171Z,27.56
2022-12-12T18:46:59.722Z,28.49
2022-12-12T18:48:30.942Z,28.99
2022-12-12T18:50:02.500Z,28.35
2022-12-12T18:51:33.680Z,28.92
2022-12-12T18:53:05.382Z,28.68
2022-12-12T18:54:36.828Z,28.38
2022-12-12T18:56:08.002Z,29.06
2022-12-12T18:57:54.755Z,30.44
2022-12-12T18:59:25.956Z,29.94
2022-12-12T19:00:57.522Z,31.43
2022-12-12T19:02:28.974Z,35.04
2022-12-12T19:04:04.562Z,33.97
2022-12-12T19:05:38.735Z,33.95
2022-12-12T19:07:10.223Z,34.03
2022-12-12T19:08:41.531Z,38.35
2022-12-12T19:10:13.328Z,37.06
2022-12-12T19:11:44.823Z,36.51
2022-12-12T19:13:16.291Z,36.33
2022-12-12T19:15:15.627Z,34.45
2022-12-12T19:16:47.657Z,32.72
2022-12-12T19:18:18.958Z,31.25
2022-12-12T19:19:50.234Z,31.27
2022-12-12T19:21:31.635Z,31.00
2022-12-12T19:23:02.917Z,31.77
2022-12-12T19:24:34.101Z,33.04
2022-12-12T19:26:05.189Z,32.95
2022-12-12T19:27:51.727Z,33.49
2022-12-12T19:29:22.925Z,35.03
2022-12-12T19:30:54.164Z,37.78
2022-12-12T19:32:25.719Z,37.44
2022-12-12T19:33:57.508Z,36.38
2022-12-12T19:35:28.670Z,35.63
2022-12-12T19:36:59.996Z,34.60
2022-12-12T19:38:36.339Z,33.26
2022-12-12T19:40:07.613Z,32.73
2022-12-12T19:41:38.978Z,31.84
2022-12-12T19:43:10.200Z,32.15
2022-12-12T19:44:51.615Z,32.45
2022-12-12T19:46:22.910Z,31.69
2022-12-12T19:47:54.207Z,32.19
2022-12-12T19:49:25.421Z,31.02
2022-12-12T19:50:56.591Z,29.75
2022-12-12T19:52:27.781Z,29.21
2022-12-12T19:53:59.606Z,27.72
2022-12-12T19:55:30.877Z,28.04
2022-12-12T19:57:02.202Z,27.72
2022-12-12T19:58:53.566Z,29.14
2022-12-12T20:00:29.777Z,28.87
2022-12-12T20:02:00.964Z,28.21
2022-12-12T20:03:42.266Z,27.82
2022-12-12T20:05:13.982Z,28.30
2022-12-12T20:06:50.548Z,27.94
2022-12-12T20:08:21.833Z,27.42
2022-12-12T20:09:58.316Z,26.98
2022-12-12T20:11:29.517Z,26.54
2022-12-12T20:13:01.031Z,27.57
2022-12-12T20:14:32.718Z,27.75
2022-12-12T20:16:04.069Z,27.26
2022-12-12T20:17:40.486Z,28.14
2022-12-12T20:19:11.745Z,29.14
2022-12-12T20:20:43.095Z,28.54
2022-12-12T20:22:29.545Z,28.27
2022-12-12T20:24:01.048Z,28.74
2022-12-12T20:25:32.323Z,29.25
2022-12-12T20:27:03.681Z,28.67
2022-12-12T20:28:35.479Z,28.89
2022-12-12T20:30:21.626Z,28.59
2022-12-12T20:31:52.853Z,28.05
2022-12-12T20:33:24.131Z,28.05